Time;durP1;ratioP1;P1;durP2;ratioP2;P2;SDS_P1;SDS_P2;PMS_P1;PMS_P2;Temp;Humidity;BMP_temperature;BMP_pressure;BME280_temperature;BME280_humidity;BME280_pressure;Samples;Min_cycle;Max_cycle;Signal;HPM_P1;HPM_P2
2022/01/12 00:00:18;;;;;;;43.43;28.57;;;0.90;99.90;;;;;;5048350;28;20471;-69
2022/01/12 00:02:46;;;;;;;59.40;31.90;;;0.90;99.90;;;;;;5062074;28;20560;-69
2022/01/12 00:05:13;;;;;;;49.30;30.90;;;1.00;99.90;;;;;;5061730;28;20516;-71
2022/01/12 00:07:40;;;;;;;52.13;30.43;;;0.90;99.90;;;;;;5063066;28;20497;-70
2022/01/12 00:10:08;;;;;;;56.50;31.60;;;0.90;99.90;;;;;;5061402;28;20481;-69
2022/01/12 00:12:34;;;;;;;47.63;30.23;;;0.90;99.90;;;;;;5059387;28;20969;-70
2022/01/12 00:15:02;;;;;;;42.53;31.47;;;0.90;99.90;;;;;;5059897;28;20456;-70
2022/01/12 00:17:31;;;;;;;57.17;32.50;;;0.90;99.90;;;;;;5060638;28;20494;-70
2022/01/12 00:19:58;;;;;;;43.20;32.80;;;0.90;99.90;;;;;;5065180;28;20454;-69
2022/01/12 00:22:26;;;;;;;48.37;30.67;;;0.90;99.90;;;;;;5061802;28;20479;-68
2022/01/12 00:25:12;;;;;;;61.40;31.70;;;0.90;99.90;;;;;;5059569;28;21035;-70
2022/01/12 00:33:11;;;;;;;54.60;31.97;;;0.80;99.90;;;;;;5058079;28;20462;-70
2022/01/12 00:35:38;;;;;;;38.97;28.33;;;0.80;99.90;;;;;;5054222;28;20546;-69
2022/01/12 00:38:05;;;;;;;61.53;30.63;;;0.70;99.90;;;;;;5066210;28;20456;-70
2022/01/12 00:40:32;;;;;;;43.60;30.47;;;0.70;99.90;;;;;;5058977;28;20485;-70
2022/01/12 00:42:59;;;;;;;43.10;31.50;;;0.70;99.90;;;;;;5061406;28;20457;-69
2022/01/12 00:45:27;;;;;;;43.13;29.30;;;0.70;99.90;;;;;;5064140;28;20489;-69
2022/01/12 00:47:54;;;;;;;46.47;30.20;;;0.60;99.90;;;;;;5065405;28;20487;-69
2022/01/12 00:50:22;;;;;;;56.87;30.37;;;0.60;99.90;;;;;;5066099;28;20546;-70
2022/01/12 00:52:50;;;;;;;44.73;29.80;;;0.50;99.90;;;;;;5059153;28;20495;-70
2022/01/12 00:55:17;;;;;;;48.00;30.03;;;0.50;99.90;;;;;;5059814;28;20451;-69
2022/01/12 00:57:44;;;;;;;72.87;31.53;;;0.50;99.90;;;;;;5060369;28;20565;-70
2022/01/12 01:00:12;;;;;;;50.43;30.13;;;0.50;99.90;;;;;;5065303;28;21043;-69
2022/01/12 01:02:39;;;;;;;49.47;30.23;;;0.50;99.90;;;;;;5064608;28;20960;-69
2022/01/12 01:05:07;;;;;;;63.53;31.87;;;0.50;99.90;;;;;;5060734;28;20475;-71
2022/01/12 01:07:35;;;;;;;51.47;31.23;;;0.40;99.90;;;;;;5059963;28;20475;-69
2022/01/12 01:10:05;;;;;;;58.23;31.90;;;0.40;99.90;;;;;;5061241;28;20459;-71
2022/01/12 01:12:33;;;;;;;53.73;29.80;;;0.50;99.90;;;;;;5065478;28;21224;-69
2022/01/12 01:15:05;;;;;;;47.70;29.57;;;0.60;99.90;;;;;;5058886;28;20553;-71
2022/01/12 01:25:50;;;;;;;46.40;33.50;;;0.70;99.90;;;;;;5055135;28;20455;-70
2022/01/12 01:28:18;;;;;;;58.00;31.83;;;0.70;99.90;;;;;;5059591;28;20520;-70
2022/01/12 01:30:46;;;;;;;50.90;33.27;;;0.70;99.90;;;;;;5063944;28;20459;-71
2022/01/12 01:33:16;;;;;;;50.80;30.60;;;0.80;99.90;;;;;;5058269;28;20452;-71
2022/01/12 01:35:50;;;;;;;45.30;30.40;;;0.80;99.90;;;;;;5062342;28;20463;-70
2022/01/12 01:38:18;;;;;;;43.03;30.93;;;0.90;99.90;;;;;;5055837;28;20456;-71
2022/01/12 01:40:46;;;;;;;51.50;30.93;;;0.90;99.90;;;;;;5063907;28;20464;-71
2022/01/12 01:43:22;;;;;;;45.87;34.07;;;1.00;99.90;;;;;;5062999;28;20470;-70
2022/01/12 01:54:08;;;;;;;47.67;31.70;;;1.20;99.90;;;;;;5062025;28;20497;-70
2022/01/12 01:56:35;;;;;;;41.20;30.87;;;1.30;99.90;;;;;;5060734;28;20577;-70
2022/01/12 01:59:02;;;;;;;49.90;31.40;;;1.30;99.90;;;;;;5063124;28;20490;-70
2022/01/12 02:01:28;;;;;;;44.77;30.93;;;1.40;99.90;;;;;;5063461;28;21179;-70
2022/01/12 02:03:59;;;;;;;33.80;29.33;;;1.50;99.90;;;;;;5061535;28;20468;-70
2022/01/12 02:06:27;;;;;;;40.00;29.40;;;1.50;99.90;;;;;;5056255;28;20471;-70
2022/01/12 02:08:55;;;;;;;35.40;29.57;;;1.50;99.90;;;;;;5056385;28;20538;-70
2022/01/12 02:11:27;;;;;;;45.73;29.40;;;1.60;99.90;;;;;;5063619;28;21551;-70
2022/01/12 02:13:54;;;;;;;54.20;30.07;;;1.70;99.90;;;;;;5065363;28;20466;-70
2022/01/12 02:16:28;;;;;;;34.83;29.90;;;1.80;99.90;;;;;;5063542;28;20972;-70
2022/01/12 02:19:11;;;;;;;34.37;28.40;;;1.80;99.90;;;;;;5057550;28;21027;-70
2022/01/12 02:35:49;;;;;;;42.23;28.83;;;1.50;99.90;;;;;;5056788;28;20499;-70
2022/01/12 02:41:04;;;;;;;40.17;28.53;;;1.20;99.90;;;;;;5063292;28;20464;-70
2022/01/12 02:50:34;;;;;;;44.87;29.53;;;1.20;99.90;;;;;;5059700;28;20460;-70
2022/01/12 02:54:41;;;;;;;34.27;28.07;;;1.10;99.90;;;;;;5060846;28;20513;-69
2022/01/12 02:57:08;;;;;;;45.20;29.53;;;1.20;99.90;;;;;;5064177;28;21237;-69
2022/01/12 02:59:35;;;;;;;38.40;27.90;;;1.20;99.90;;;;;;5058645;28;20466;-73
2022/01/12 03:02:20;;;;;;;30.67;27.40;;;1.20;99.90;;;;;;5060755;28;20463;-73
2022/01/12 03:05:03;;;;;;;38.20;28.80;;;1.20;99.90;;;;;;5055110;28;20456;-70
2022/01/12 03:07:36;;;;;;;42.37;29.70;;;1.10;99.90;;;;;;5058620;28;21055;-70
2022/01/12 03:10:05;;;;;;;39.33;28.53;;;1.10;99.90;;;;;;5060558;28;20517;-69
2022/01/12 03:12:32;;;;;;;36.03;28.53;;;1.00;99.90;;;;;;5054364;28;20470;-70
2022/01/12 03:14:59;;;;;;;39.27;29.07;;;1.10;99.90;;;;;;5060286;28;21176;-70
2022/01/12 03:17:26;;;;;;;46.40;29.80;;;1.00;99.90;;;;;;5060799;28;20521;-71
2022/01/12 03:19:52;;;;;;;42.87;29.57;;;1.00;99.90;;;;;;5058700;28;20460;-71
2022/01/12 03:22:20;;;;;;;39.70;28.40;;;1.00;99.90;;;;;;5058394;28;20462;-70
2022/01/12 03:24:47;;;;;;;41.00;28.53;;;1.00;99.90;;;;;;5056166;28;20471;-70
2022/01/12 03:27:16;;;;;;;43.67;29.23;;;1.00;99.90;;;;;;5064273;28;20615;-70
2022/01/12 03:29:48;;;;;;;42.37;27.50;;;1.00;99.90;;;;;;5056273;28;20466;-70
2022/01/12 03:32:18;;;;;;;39.20;28.23;;;1.00;99.90;;;;;;5060141;28;20466;-70
2022/01/12 03:34:53;;;;;;;35.97;27.33;;;1.00;99.90;;;;;;5058166;28;20468;-70
2022/01/12 03:37:38;;;;;;;37.33;27.80;;;1.10;99.90;;;;;;5053512;28;20498;-69
2022/01/12 03:40:07;;;;;;;39.10;27.77;;;1.10;99.90;;;;;;5058123;28;20447;-68
2022/01/12 03:42:35;;;;;;;45.70;27.40;;;1.20;99.90;;;;;;5063054;28;20470;-69
2022/01/12 03:45:03;;;;;;;31.93;27.07;;;1.20;99.90;;;;;;5061424;28;20976;-70
2022/01/12 03:47:30;;;;;;;40.00;27.23;;;1.30;99.90;;;;;;5057236;28;20509;-70
2022/01/12 03:49:56;;;;;;;43.67;28.33;;;1.40;99.90;;;;;;5061007;28;20463;-68
2022/01/12 03:52:23;;;;;;;43.83;28.70;;;1.50;99.90;;;;;;5057785;28;20489;-69
2022/01/12 03:54:50;;;;;;;42.77;28.03;;;1.60;99.90;;;;;;5059166;28;20475;-70
2022/01/12 03:57:17;;;;;;;46.00;27.53;;;1.60;99.90;;;;;;5061827;28;20825;-71
2022/01/12 03:59:46;;;;;;;33.20;29.13;;;1.70;99.90;;;;;;5059627;28;20983;-68
2022/01/12 04:02:13;;;;;;;31.90;28.07;;;1.80;99.90;;;;;;5062396;28;20463;-69
2022/01/12 04:05:03;;;;;;;32.67;28.87;;;1.80;99.90;;;;;;5055925;28;20875;-70
2022/01/12 04:10:11;;;;;;;34.03;26.90;;;2.00;99.90;;;;;;5062974;28;20523;-70
2022/01/12 04:12:38;;;;;;;42.97;25.70;;;2.00;99.90;;;;;;5055160;28;20828;-69
2022/01/12 04:15:07;;;;;;;33.43;26.73;;;2.00;99.90;;;;;;5055595;28;20466;-71
2022/01/12 04:17:34;;;;;;;36.87;26.77;;;2.10;99.90;;;;;;5059403;28;20466;-71
2022/01/12 04:20:02;;;;;;;31.57;26.93;;;2.10;99.90;;;;;;5056134;28;20549;-70
2022/01/12 04:25:14;;;;;;;40.73;27.00;;;2.10;99.90;;;;;;5059340;28;20515;-70
2022/01/12 04:27:41;;;;;;;38.50;27.20;;;2.20;99.90;;;;;;5061140;28;20487;-68
2022/01/12 04:30:10;;;;;;;32.53;25.83;;;2.20;99.90;;;;;;5061222;28;20549;-70
2022/01/12 04:32:41;;;;;;;30.43;27.23;;;2.20;99.90;;;;;;5058072;28;20463;-69
2022/01/12 04:35:08;;;;;;;32.87;26.97;;;2.30;99.90;;;;;;5059691;28;20469;-69
2022/01/12 04:37:35;;;;;;;29.67;26.27;;;2.30;99.90;;;;;;5060381;28;20547;-70
2022/01/12 04:40:03;;;;;;;29.90;26.70;;;2.30;99.90;;;;;;5061418;28;20497;-69
2022/01/12 04:42:30;;;;;;;30.00;27.00;;;2.30;99.90;;;;;;5063125;28;20456;-70
2022/01/12 04:45:03;;;;;;;29.80;26.33;;;2.20;99.90;;;;;;5059502;28;20471;-70
2022/01/12 04:47:57;;;;;;;27.47;24.53;;;2.30;99.90;;;;;;5056898;28;20483;-69
2022/01/12 04:50:26;;;;;;;28.10;25.37;;;2.30;99.90;;;;;;5053910;28;20463;-69
2022/01/12 04:52:53;;;;;;;28.13;25.10;;;2.20;99.90;;;;;;5057260;28;20455;-70
2022/01/12 04:55:20;;;;;;;26.97;24.47;;;2.20;99.90;;;;;;5064252;28;20470;-69
2022/01/12 04:57:47;;;;;;;27.90;25.03;;;2.30;99.90;;;;;;5063729;28;20478;-69
2022/01/12 05:00:17;;;;;;;28.33;25.73;;;2.30;99.90;;;;;;5051624;28;20903;-69
2022/01/12 05:08:19;;;;;;;39.70;26.30;;;2.20;99.90;;;;;;5033656;28;20643;-69
2022/01/12 05:13:32;;;;;;;29.07;25.80;;;2.20;99.90;;;;;;5032772;28;21132;-70
2022/01/12 05:16:00;;;;;;;28.87;25.77;;;2.30;99.90;;;;;;5033205;28;20549;-70
2022/01/12 05:18:28;;;;;;;28.17;25.70;;;2.30;99.90;;;;;;5033366;28;20464;-69
2022/01/12 05:20:55;;;;;;;30.03;27.10;;;2.40;99.90;;;;;;5032910;28;21238;-70
2022/01/12 05:23:22;;;;;;;27.13;24.27;;;2.30;99.90;;;;;;5032432;28;20464;-70
2022/01/12 05:25:51;;;;;;;30.60;25.30;;;2.30;99.90;;;;;;5032792;28;20466;-70
2022/01/12 05:28:18;;;;;;;29.57;26.40;;;2.30;99.90;;;;;;5030685;28;20883;-71
2022/01/12 05:30:46;;;;;;;28.33;25.30;;;2.30;99.90;;;;;;5032322;28;21291;-70
2022/01/12 05:33:13;;;;;;;28.10;25.33;;;2.40;99.90;;;;;;5033620;28;21002;-70
2022/01/12 05:35:42;;;;;;;27.40;25.00;;;2.40;99.90;;;;;;5033043;28;20582;-70
2022/01/12 05:38:11;;;;;;;27.97;24.87;;;2.50;99.90;;;;;;5032231;28;20475;-70
2022/01/12 05:40:38;;;;;;;26.87;24.07;;;2.50;99.90;;;;;;5030780;28;20831;-70
2022/01/12 05:43:06;;;;;;;34.67;26.33;;;2.60;99.90;;;;;;5032108;28;20510;-70
2022/01/12 05:45:34;;;;;;;27.47;24.83;;;2.60;99.90;;;;;;5031707;28;20491;-69
2022/01/12 05:50:49;;;;;;;25.43;23.17;;;2.60;99.90;;;;;;5032240;28;21332;-70
2022/01/12 05:53:17;;;;;;;25.07;22.77;;;2.60;99.90;;;;;;5032513;28;20563;-69
2022/01/12 05:55:43;;;;;;;141.33;75.67;;;2.50;99.90;;;;;;5032154;28;20459;-70
2022/01/12 05:58:11;;;;;;;37.43;31.40;;;2.50;99.90;;;;;;5032265;28;20482;-71
2022/01/12 06:00:38;;;;;;;26.83;23.93;;;2.40;99.90;;;;;;5031783;28;20459;-70
2022/01/12 06:03:05;;;;;;;33.47;27.20;;;2.50;99.90;;;;;;5031762;28;21668;-70
2022/01/12 06:05:31;;;;;;;28.37;25.43;;;2.60;99.90;;;;;;5031612;28;20476;-70
2022/01/12 06:08:00;;;;;;;32.30;27.50;;;2.50;99.90;;;;;;5032548;28;20495;-71
2022/01/12 06:10:28;;;;;;;30.13;24.00;;;2.40;99.90;;;;;;5031530;28;20471;-70
2022/01/12 06:12:55;;;;;;;28.43;25.50;;;2.40;99.90;;;;;;5032517;28;21051;-70
2022/01/12 06:15:22;;;;;;;33.53;24.93;;;2.20;99.90;;;;;;5032048;28;21111;-70
2022/01/12 06:17:49;;;;;;;25.73;23.30;;;2.00;99.90;;;;;;5031872;28;20557;-70
2022/01/12 06:20:17;;;;;;;34.23;24.93;;;2.10;99.90;;;;;;5031659;28;20469;-70
2022/01/12 06:22:43;;;;;;;37.07;24.17;;;2.10;99.90;;;;;;5031410;28;20848;-73
2022/01/12 06:25:15;;;;;;;28.97;24.50;;;2.10;99.90;;;;;;5031837;28;20917;-71
2022/01/12 06:27:50;;;;;;;26.00;23.60;;;2.20;99.90;;;;;;5032192;28;20979;-70
2022/01/12 06:33:00;;;;;;;32.17;22.40;;;2.30;99.90;;;;;;5031056;28;20538;-69
2022/01/12 06:35:27;;;;;;;27.47;24.50;;;2.30;99.90;;;;;;5031792;28;20613;-71
2022/01/12 06:37:55;;;;;;;26.07;23.27;;;2.30;99.90;;;;;;5031027;28;20464;-69
2022/01/12 06:40:24;;;;;;;27.80;23.87;;;2.40;99.90;;;;;;5031224;28;20563;-68
2022/01/12 06:42:50;;;;;;;25.33;22.80;;;2.50;99.90;;;;;;5031351;28;20944;-70
2022/01/12 06:45:18;;;;;;;25.13;22.63;;;2.50;99.90;;;;;;5031379;28;20488;-70
2022/01/12 06:47:44;;;;;;;26.30;23.80;;;2.60;99.90;;;;;;5031750;28;20492;-70
2022/01/12 06:50:11;;;;;;;26.47;24.13;;;2.60;99.90;;;;;;5031386;28;20507;-70
2022/01/12 06:52:38;;;;;;;30.60;27.27;;;2.70;99.90;;;;;;5030835;28;20974;-70
2022/01/12 06:55:06;;;;;;;37.20;24.67;;;2.80;99.90;;;;;;5027472;28;21159;-70
2022/01/12 06:57:35;;;;;;;26.30;22.30;;;2.80;99.90;;;;;;5029290;28;20484;-71
2022/01/12 07:00:01;;;;;;;35.63;24.63;;;2.70;99.90;;;;;;5030139;28;20448;-69
2022/01/12 07:02:28;;;;;;;25.20;22.50;;;2.70;99.90;;;;;;5030294;28;20569;-69
2022/01/12 07:04:55;;;;;;;28.07;22.57;;;2.80;99.90;;;;;;5028850;28;20835;-71
2022/01/12 07:07:23;;;;;;;38.03;23.53;;;2.80;99.90;;;;;;5030093;28;20459;-69
2022/01/12 07:09:51;;;;;;;25.60;23.10;;;2.80;99.90;;;;;;5029115;28;20946;-71
2022/01/12 07:12:18;;;;;;;25.27;22.77;;;2.80;99.90;;;;;;5029296;28;20460;-70
2022/01/12 07:14:46;;;;;;;27.27;23.17;;;2.90;99.90;;;;;;5029101;28;20800;-70
2022/01/12 07:17:14;;;;;;;29.40;25.70;;;3.00;99.90;;;;;;5028632;28;20463;-72
2022/01/12 07:19:40;;;;;;;28.70;25.60;;;3.00;99.90;;;;;;5028970;28;20512;-71
2022/01/12 07:22:08;;;;;;;25.57;22.90;;;3.00;99.90;;;;;;5029324;28;21056;-71
2022/01/12 07:24:35;;;;;;;27.93;23.60;;;2.80;99.90;;;;;;5028314;28;20772;-70
2022/01/12 07:27:03;;;;;;;27.13;24.57;;;2.80;99.90;;;;;;5029462;28;20471;-70
2022/01/12 07:29:30;;;;;;;26.47;22.47;;;2.90;99.90;;;;;;5028456;28;20537;-70
2022/01/12 07:31:58;;;;;;;23.63;21.27;;;2.80;99.90;;;;;;5028716;28;20468;-73
2022/01/12 07:34:25;;;;;;;22.47;20.57;;;2.80;99.90;;;;;;5028317;28;20487;-70
2022/01/12 07:36:52;;;;;;;25.77;21.10;;;2.80;99.90;;;;;;5028133;28;20504;-69
2022/01/12 07:39:19;;;;;;;23.77;21.73;;;2.60;99.90;;;;;;5029554;28;20475;-69
2022/01/12 07:41:46;;;;;;;22.97;21.00;;;2.70;99.90;;;;;;5028840;28;20561;-71
2022/01/12 07:44:13;;;;;;;22.67;20.70;;;2.70;99.90;;;;;;5027480;28;20475;-73
2022/01/12 07:46:40;;;;;;;22.80;20.67;;;2.70;99.90;;;;;;5028483;28;20491;-71
2022/01/12 07:49:08;;;;;;;23.30;21.20;;;2.70;99.90;;;;;;5028152;28;21508;-71
2022/01/12 07:51:35;;;;;;;23.27;21.23;;;2.70;99.90;;;;;;5029082;28;20464;-72
2022/01/12 07:54:02;;;;;;;24.30;22.03;;;2.70;99.90;;;;;;5028650;28;20610;-73
2022/01/12 07:56:29;;;;;;;24.33;22.13;;;2.80;99.90;;;;;;5029074;28;20461;-73
2022/01/12 07:58:55;;;;;;;23.50;21.40;;;2.90;99.90;;;;;;5027651;28;20521;-71
2022/01/12 08:01:22;;;;;;;23.60;21.40;;;2.90;99.90;;;;;;5027532;28;20471;-72
2022/01/12 08:03:50;;;;;;;25.40;23.10;;;2.90;99.90;;;;;;5028619;28;20842;-73
2022/01/12 08:06:19;;;;;;;22.20;20.30;;;2.90;99.90;;;;;;5029333;28;20468;-72
2022/01/12 08:08:46;;;;;;;24.90;22.37;;;3.00;99.90;;;;;;5025829;28;22530;-73
2022/01/12 08:11:13;;;;;;;25.67;23.20;;;3.00;99.90;;;;;;5028377;28;20782;-72
2022/01/12 08:13:42;;;;;;;26.37;23.60;;;3.10;99.90;;;;;;5028608;28;20896;-73
2022/01/12 08:16:09;;;;;;;25.47;22.77;;;3.10;99.90;;;;;;5028941;28;20460;-73
2022/01/12 08:18:36;;;;;;;26.33;23.53;;;3.20;99.90;;;;;;5027906;28;20799;-73
2022/01/12 08:21:05;;;;;;;25.87;23.20;;;3.20;99.90;;;;;;5028030;28;20472;-73
2022/01/12 08:23:33;;;;;;;32.10;24.63;;;3.20;99.90;;;;;;5029107;28;20890;-72
2022/01/12 08:26:00;;;;;;;26.90;24.10;;;3.10;99.90;;;;;;5027732;28;20962;-73
2022/01/12 08:28:27;;;;;;;26.90;23.77;;;3.20;99.90;;;;;;5031889;28;20871;-71
2022/01/12 08:30:54;;;;;;;26.87;24.00;;;3.20;99.90;;;;;;5032162;28;20459;-72
2022/01/12 08:33:21;;;;;;;27.20;24.57;;;3.30;99.90;;;;;;5032225;28;20459;-73
2022/01/12 08:35:48;;;;;;;24.77;22.43;;;3.40;99.90;;;;;;5031658;28;20523;-74
2022/01/12 08:38:15;;;;;;;28.53;25.40;;;3.30;99.90;;;;;;5031772;28;20930;-70
2022/01/12 08:40:43;;;;;;;27.07;23.97;;;3.40;99.90;;;;;;5031498;28;20473;-72
2022/01/12 08:43:10;;;;;;;39.53;23.53;;;3.30;99.90;;;;;;5032295;28;20989;-72
2022/01/12 08:45:37;;;;;;;25.03;22.53;;;3.30;99.90;;;;;;5031694;28;20490;-71
2022/01/12 08:48:05;;;;;;;26.53;23.63;;;3.30;99.90;;;;;;5036447;28;20978;-71
2022/01/12 08:50:32;;;;;;;27.13;24.20;;;3.30;99.90;;;;;;5064545;28;20490;-71
2022/01/12 08:52:59;;;;;;;29.03;24.80;;;3.30;99.90;;;;;;5059846;28;20466;-73
2022/01/12 08:55:26;;;;;;;25.27;22.67;;;3.20;99.90;;;;;;5045679;28;20464;-72
2022/01/12 08:57:58;;;;;;;25.23;22.73;;;3.30;99.90;;;;;;5031691;28;20838;-74
2022/01/12 09:00:25;;;;;;;29.77;23.53;;;3.30;99.90;;;;;;5051276;28;20467;-73
2022/01/12 09:02:52;;;;;;;26.20;23.60;;;3.20;99.90;;;;;;5066518;28;20465;-72
2022/01/12 09:05:19;;;;;;;29.67;23.77;;;3.10;99.90;;;;;;5065896;28;20474;-73
2022/01/12 09:07:46;;;;;;;34.50;24.03;;;3.20;99.90;;;;;;5038649;28;20830;-72
2022/01/12 09:10:13;;;;;;;26.27;22.93;;;3.20;99.90;;;;;;5031071;28;20494;-71
2022/01/12 09:12:40;;;;;;;30.10;25.10;;;3.10;99.90;;;;;;5031996;28;20967;-72
2022/01/12 09:15:10;;;;;;;31.97;25.30;;;3.10;99.90;;;;;;5028606;28;20677;-73
2022/01/12 09:17:38;;;;;;;30.13;24.77;;;3.20;99.90;;;;;;5031038;28;20818;-72
2022/01/12 09:20:06;;;;;;;29.40;23.93;;;3.20;99.90;;;;;;5031098;28;20977;-71
2022/01/12 09:22:33;;;;;;;32.10;25.17;;;3.20;99.90;;;;;;5030733;28;20781;-73
2022/01/12 09:25:00;;;;;;;34.33;24.93;;;3.20;99.90;;;;;;5030541;28;20756;-72
2022/01/12 09:27:27;;;;;;;27.23;24.33;;;3.20;99.90;;;;;;5030768;28;20468;-72
2022/01/12 09:29:54;;;;;;;33.57;25.60;;;3.30;99.90;;;;;;5030449;28;20559;-72
2022/01/12 09:32:22;;;;;;;27.53;23.47;;;3.40;99.90;;;;;;5030855;28;20980;-72
2022/01/12 09:34:49;;;;;;;35.33;24.93;;;3.30;99.90;;;;;;5029240;28;20456;-72
2022/01/12 09:37:16;;;;;;;38.97;24.43;;;3.30;99.90;;;;;;5030236;28;20503;-71
2022/01/12 09:39:43;;;;;;;33.00;25.80;;;3.20;99.90;;;;;;5028836;28;20778;-71
2022/01/12 09:42:10;;;;;;;49.57;26.70;;;3.30;99.90;;;;;;5029982;28;20468;-72
2022/01/12 09:44:38;;;;;;;47.67;26.03;;;3.40;99.90;;;;;;5029470;28;20475;-72
2022/01/12 09:47:07;;;;;;;41.00;25.30;;;3.40;99.90;;;;;;5031064;28;20501;-72
2022/01/12 09:49:35;;;;;;;43.90;29.80;;;3.50;99.90;;;;;;5030777;28;20543;-71
2022/01/12 09:52:04;;;;;;;47.03;28.27;;;3.40;99.90;;;;;;5030334;28;22652;-71
2022/01/12 09:54:31;;;;;;;37.20;26.20;;;3.30;99.90;;;;;;5028571;28;20464;-73
2022/01/12 09:56:59;;;;;;;34.83;26.50;;;3.20;99.90;;;;;;5029813;28;20460;-74
2022/01/12 09:59:27;;;;;;;36.83;24.80;;;3.30;99.90;;;;;;5029437;28;20483;-72
2022/01/12 10:01:54;;;;;;;36.93;25.23;;;3.40;99.90;;;;;;5029775;28;20478;-72
2022/01/12 10:04:23;;;;;;;42.70;28.13;;;3.40;99.90;;;;;;5028805;28;20554;-73
2022/01/12 10:06:54;;;;;;;39.63;25.83;;;3.60;99.90;;;;;;5029489;28;20460;-71
2022/01/12 10:09:26;;;;;;;45.63;29.20;;;3.60;99.90;;;;;;5027786;28;21039;-72
2022/01/12 10:11:56;;;;;;;39.50;26.20;;;3.70;99.90;;;;;;5029961;28;20479;-71
2022/01/12 10:14:24;;;;;;;41.40;29.00;;;3.70;99.90;;;;;;5029126;28;20579;-72
2022/01/12 10:16:55;;;;;;;49.73;28.80;;;3.70;99.90;;;;;;5029507;28;20980;-72
2022/01/12 10:19:27;;;;;;;37.47;28.37;;;3.60;99.90;;;;;;5028733;28;20826;-71
2022/01/12 10:21:56;;;;;;;51.10;29.80;;;3.60;99.90;;;;;;5030024;28;20563;-72
2022/01/12 10:24:24;;;;;;;51.57;31.33;;;3.70;99.90;;;;;;5028839;28;20472;-72
2022/01/12 10:26:52;;;;;;;49.20;31.70;;;3.80;99.90;;;;;;5029368;28;20459;-71
2022/01/12 10:29:22;;;;;;;48.80;30.33;;;3.80;99.90;;;;;;5029214;28;20499;-73
2022/01/12 10:31:52;;;;;;;61.93;31.30;;;3.80;99.90;;;;;;5029521;28;20858;-71
2022/01/12 10:34:22;;;;;;;60.07;32.63;;;3.90;99.90;;;;;;5028463;28;20460;-71
2022/01/12 10:36:49;;;;;;;53.77;32.13;;;3.80;99.90;;;;;;5028782;28;21152;-73
2022/01/12 10:39:18;;;;;;;58.33;32.43;;;3.90;99.90;;;;;;5029251;28;20521;-72
2022/01/12 10:41:58;;;;;;;56.67;32.07;;;3.90;99.90;;;;;;5028711;28;20470;-71
2022/01/12 10:44:28;;;;;;;56.30;32.27;;;4.00;99.90;;;;;;5028242;28;20972;-71
2022/01/12 10:47:16;;;;;;;59.17;30.70;;;3.90;99.90;;;;;;5028482;28;20481;-71
2022/01/12 10:49:47;;;;;;;51.03;30.93;;;4.00;99.90;;;;;;5027031;28;20483;-71
2022/01/12 10:52:17;;;;;;;66.13;32.53;;;4.00;99.90;;;;;;5027394;28;20489;-72
2022/01/12 10:54:47;;;;;;;64.00;33.73;;;3.90;99.90;;;;;;5028894;28;20480;-71
2022/01/12 10:57:21;;;;;;;57.90;32.53;;;3.90;99.90;;;;;;5027999;28;20466;-71
2022/01/12 11:00:07;;;;;;;71.90;30.93;;;4.00;99.90;;;;;;5027966;28;20549;-72
2022/01/12 11:02:36;;;;;;;58.37;31.93;;;3.90;99.90;;;;;;5029418;28;21127;-73
2022/01/12 11:05:04;;;;;;;91.93;32.07;;;3.80;99.90;;;;;;5028060;28;20456;-71
2022/01/12 11:07:31;;;;;;;87.90;34.90;;;3.90;99.90;;;;;;5028130;28;20483;-71
2022/01/12 11:10:03;;;;;;;68.80;32.90;;;3.90;99.90;;;;;;5026639;28;20506;-72
2022/01/12 11:12:30;;;;;;;68.43;32.23;;;3.90;99.90;;;;;;5028290;28;20482;-73
2022/01/12 11:14:57;;;;;;;65.57;32.77;;;3.90;99.90;;;;;;5027742;28;20475;-71
2022/01/12 11:17:24;;;;;;;84.47;32.47;;;3.80;99.90;;;;;;5028329;28;20870;-73
2022/01/12 11:19:58;;;;;;;91.40;34.80;;;4.00;99.90;;;;;;5028619;28;20505;-73
2022/01/12 11:22:37;;;;;;;104.83;32.23;;;4.00;99.90;;;;;;5028552;28;20460;-73
2022/01/12 11:25:17;;;;;;;56.20;31.03;;;4.10;99.90;;;;;;5027589;28;20463;-73
2022/01/12 11:27:44;;;;;;;87.33;31.30;;;4.10;99.90;;;;;;5029074;28;20460;-72
2022/01/12 11:30:19;;;;;;;82.43;31.10;;;4.10;99.90;;;;;;5028960;28;20492;-70
2022/01/12 11:32:56;;;;;;;100.13;33.70;;;4.10;99.90;;;;;;5028892;28;20463;-71
2022/01/12 11:35:27;;;;;;;116.63;35.33;;;4.20;99.90;;;;;;5028089;28;20499;-71
2022/01/12 11:37:57;;;;;;;84.50;35.43;;;4.20;99.90;;;;;;5026992;28;20470;-71
2022/01/12 11:40:38;;;;;;;68.90;33.87;;;4.40;99.90;;;;;;5028911;28;20533;-72
2022/01/12 11:43:17;;;;;;;70.20;34.80;;;4.20;99.90;;;;;;5028799;28;20930;-72
2022/01/12 11:45:44;;;;;;;99.60;33.60;;;4.00;99.90;;;;;;5027197;28;20491;-73
2022/01/12 11:48:11;;;;;;;73.23;36.13;;;3.80;99.90;;;;;;5028321;28;20464;-71
2022/01/12 11:50:37;;;;;;;63.93;31.37;;;4.00;99.90;;;;;;5027869;28;20501;-72
2022/01/12 11:53:04;;;;;;;99.77;33.70;;;4.00;99.90;;;;;;5028340;28;20464;-71
2022/01/12 11:55:38;;;;;;;89.80;36.33;;;3.80;99.90;;;;;;5027610;28;20471;-70
2022/01/12 11:58:05;;;;;;;84.07;34.63;;;3.80;99.90;;;;;;5027639;28;20490;-71
2022/01/12 12:00:33;;;;;;;72.20;35.43;;;3.90;99.90;;;;;;5027202;28;21264;-71
2022/01/12 12:03:01;;;;;;;87.10;35.70;;;3.90;99.90;;;;;;5031411;28;20470;-71
2022/01/12 12:05:29;;;;;;;76.67;37.13;;;4.00;99.90;;;;;;5032791;28;20516;-72
2022/01/12 12:08:01;;;;;;;76.13;36.93;;;4.00;99.90;;;;;;5032229;28;20482;-70
2022/01/12 12:10:29;;;;;;;105.00;36.53;;;4.20;99.90;;;;;;5032182;28;21195;-72
2022/01/12 12:12:58;;;;;;;111.50;37.77;;;4.20;99.90;;;;;;5032580;28;20455;-72
2022/01/12 12:15:29;;;;;;;90.23;36.37;;;4.20;99.90;;;;;;5032214;28;20546;-72
2022/01/12 12:17:58;;;;;;;84.30;36.37;;;4.20;99.90;;;;;;5032220;28;20462;-71
2022/01/12 12:20:26;;;;;;;93.20;42.17;;;4.20;99.90;;;;;;5032102;28;20850;-71
2022/01/12 12:22:53;;;;;;;97.47;38.20;;;4.40;99.90;;;;;;5030954;28;20473;-72
2022/01/12 12:25:21;;;;;;;79.40;38.70;;;4.50;99.90;;;;;;5032004;28;20464;-72
2022/01/12 12:27:53;;;;;;;81.07;35.90;;;4.60;99.90;;;;;;5032572;28;20456;-72
2022/01/12 12:30:22;;;;;;;80.23;35.70;;;4.70;99.90;;;;;;5031447;28;20489;-72
2022/01/12 12:32:52;;;;;;;94.20;37.67;;;4.70;99.90;;;;;;5031817;28;20468;-72
2022/01/12 12:35:22;;;;;;;71.00;37.63;;;4.70;99.90;;;;;;5031792;28;21128;-72
2022/01/12 12:37:52;;;;;;;79.87;35.70;;;4.70;99.90;;;;;;5031958;28;20688;-71
2022/01/12 12:40:21;;;;;;;74.97;35.43;;;4.60;99.90;;;;;;5031089;28;20478;-69
2022/01/12 12:42:50;;;;;;;82.40;37.03;;;4.70;99.90;;;;;;5044952;28;20471;-72
2022/01/12 12:45:17;;;;;;;70.87;36.20;;;4.50;99.90;;;;;;5064514;28;21298;-72
2022/01/12 12:47:45;;;;;;;73.33;37.73;;;4.50;99.90;;;;;;5067302;28;20551;-70
2022/01/12 12:50:14;;;;;;;96.47;38.20;;;4.70;99.90;;;;;;5064675;28;20928;-70
2022/01/12 12:52:42;;;;;;;71.60;37.10;;;4.60;99.90;;;;;;5043351;28;20895;-70
2022/01/12 12:55:15;;;;;;;64.13;37.00;;;4.80;99.90;;;;;;5030142;28;20851;-70
2022/01/12 12:57:50;;;;;;;80.57;37.40;;;4.80;99.90;;;;;;5059636;28;20484;-72
2022/01/12 13:00:19;;;;;;;71.80;36.50;;;4.70;99.90;;;;;;5055733;28;20451;-70
2022/01/12 13:02:50;;;;;;;63.83;33.57;;;4.70;99.90;;;;;;5033503;28;22386;-71
2022/01/12 13:05:19;;;;;;;55.93;35.10;;;4.70;99.90;;;;;;5032115;28;20921;-72
2022/01/12 13:07:47;;;;;;;54.63;33.33;;;4.60;99.90;;;;;;5031109;28;20497;-72
2022/01/12 13:10:16;;;;;;;64.30;33.50;;;4.70;99.90;;;;;;5029553;28;20509;-71
2022/01/12 13:12:45;;;;;;;81.90;36.50;;;4.70;99.90;;;;;;5030324;28;20471;-71
2022/01/12 13:15:20;;;;;;;62.77;34.73;;;4.60;99.90;;;;;;5028948;28;21073;-73
2022/01/12 13:17:48;;;;;;;69.80;34.73;;;4.60;99.90;;;;;;5030757;28;20453;-72
2022/01/12 13:23:07;;;;;;;100.30;38.50;;;4.50;99.90;;;;;;5031537;28;20490;-70
2022/01/12 13:25:34;;;;;;;70.70;35.60;;;4.70;99.90;;;;;;5031082;28;20466;-72
2022/01/12 13:28:01;;;;;;;74.37;37.13;;;4.70;99.90;;;;;;5031146;28;20465;-71
2022/01/12 13:30:31;;;;;;;77.33;37.83;;;4.70;99.90;;;;;;5030057;28;21000;-70
2022/01/12 13:33:01;;;;;;;70.37;36.90;;;4.80;99.90;;;;;;5031650;28;21308;-72
2022/01/12 13:35:29;;;;;;;81.43;37.20;;;4.70;99.90;;;;;;5030102;28;20841;-72
2022/01/12 13:37:59;;;;;;;70.70;36.67;;;4.80;99.90;;;;;;5030359;28;20494;-72
2022/01/12 13:40:33;;;;;;;64.27;35.20;;;4.90;99.90;;;;;;5029573;28;20467;-71
2022/01/12 13:43:00;;;;;;;54.37;34.23;;;4.90;99.90;;;;;;5031085;28;20464;-72
2022/01/12 13:45:36;;;;;;;61.90;32.97;;;4.90;99.90;;;;;;5028977;28;20765;-71
2022/01/12 13:48:12;;;;;;;65.10;34.20;;;4.80;99.90;;;;;;5029790;28;20463;-71
2022/01/12 13:50:40;;;;;;;63.97;36.33;;;4.90;99.90;;;;;;5030566;28;20491;-71
2022/01/12 13:53:07;;;;;;;60.23;34.20;;;5.00;99.90;;;;;;5030765;28;20460;-71